Flight Track Log - Related Links

Times and Time Zones

All times are in EDT time to prevent confusion due to time zone crossing. See the AWE663 flight status page for this flight to view local times or setup timezone preferences in your user account.

Time Position Orientation Groundspeed Altitude Reporting Facility
EDT Latitude Longitude Course Direction KTS MPH feet Rate Location/Type
Sat 01:47:47 PM 33.4333 -112.0333 281° West 191 220 1,900  Level Phoenix TRACON
Sat 01:49:19 PM 33.4031 -112.1431 252° West 223 257 4,100 1,592 Climbing Los Angeles Center
Sat 01:50:14 PM 33.4089 -112.2275 275° West 263 303 5,800 1,692 Climbing Albuquerque Center
Sat 01:51:00 PM 33.4380 -112.5582 274° West  Level FlightAware Approximate
Sat 01:51:16 PM 33.4153 -112.3217 275° West 281 323 7,400  Level Albuquerque Center
Sat 01:52:00 PM 33.4450 -112.6975 273° West  Level FlightAware Approximate
Sat 01:52:18 PM 33.4242 -112.4197 276° West 291 335 9,200  Level Albuquerque Center
Sat 01:53:00 PM 33.4533 -112.8366 281° West  Level FlightAware Approximate
Sat 01:53:19 PM 33.4303 -112.5197 274° West 299 344 10,600  Level Albuquerque Center
Sat 01:54:21 PM 33.4392 -112.6378 275° West 334 384 11,500 968 Climbing Albuquerque Center
Sat 01:55:23 PM 33.4486 -112.7603 275° West 359 413 12,600 1,317 Climbing Albuquerque Center
Sat 01:56:24 PM 33.4650 -112.8889 279° West 383 441 14,200 1,512 Climbing Albuquerque Center
Sat 01:57:26 PM 33.4903 -113.0164 283° West 390 449 15,700 1,415 Climbing Albuquerque Center
Sat 01:58:27 PM 33.5161 -113.1475 283° West 402 463 17,100 1,463 Climbing Albuquerque Center
Sat 01:59:29 PM 33.5469 -113.3081 283° West 409 471 18,700 1,403 Climbing Albuquerque Center
Sat 02:00:31 PM 33.5717 -113.4436 282° West 415 478 20,000 1,171 Climbing Albuquerque Center
Sat 02:01:32 PM 33.5978 -113.5817 283° West 422 486 21,100 1,073 Climbing Albuquerque Center
Sat 02:02:34 PM 33.6239 -113.7189 283° West 424 488 22,200 1,073 Climbing Albuquerque Center
Sat 02:03:35 PM 33.6489 -113.8594 282° West 427 491 23,300 1,024 Climbing Albuquerque Center
Sat 02:04:37 PM 33.6742 -114.0003 282° West 429 494 24,300 968 Climbing Albuquerque Center
Sat 02:05:39 PM 33.7072 -114.1408 286° West 430 495 25,300 927 Climbing Albuquerque Center
Sat 02:06:40 PM 33.7594 -114.3122 290° West 441 507 26,200 878 Climbing Albuquerque Center
Sat 02:07:42 PM 33.7972 -114.4556 288° West 445 512 27,100 927 Climbing Albuquerque Center
Sat 02:08:43 PM 33.8328 -114.6006 286° West 448 516 28,100 943 Climbing Albuquerque Center
Sat 02:10:02 PM 33.8728 -114.7764 285° West 453 521 29,300 1,234 Climbing Los Angeles Center
Sat 02:11:04 PM 33.9186 -114.9533 287° West 457 526 31,000 1,306 Climbing Los Angeles Center
Sat 02:12:06 PM 33.9522 -115.0956 286° West 452 520 32,000 435 Climbing Los Angeles Center
Sat 02:13:08 PM 33.9856 -115.2381 286° West 447 514 31,900  Descending Los Angeles Center
Sat 02:14:10 PM 34.0189 -115.3794 286° West 445 512 32,000 48 Climbing Los Angeles Center
Sat 02:15:12 PM 34.0522 -115.5192 286° West 440 506 32,000  Level Los Angeles Center
Sat 02:16:14 PM 34.0939 -115.6856 287° West 439 505 32,000  Level Los Angeles Center
Sat 02:17:17 PM 34.1278 -115.8278 286° West 439 505 32,000  Level Los Angeles Center
Sat 02:18:19 PM 34.1628 -115.9761 286° West 439 505 32,000  Level Los Angeles Center
Sat 02:19:21 PM 34.1958 -116.1194 286° West 441 507 32,000  Level Los Angeles Center
Sat 02:20:23 PM 34.2289 -116.2625 286° West 441 507 32,000  Level Los Angeles Center
Sat 02:21:25 PM 34.2622 -116.4058 286° West 441 507 32,000  Level Los Angeles Center
Sat 02:22:27 PM 34.2950 -116.5489 286° West 442 509 32,000  Level Los Angeles Center
Sat 02:23:29 PM 34.3272 -116.6908 285° West 440 506 32,000  Level Los Angeles Center
Sat 02:24:32 PM 34.3667 -116.8642 285° West 440 506 32,000  Level Los Angeles Center
Sat 02:25:34 PM 34.3989 -117.0069 285° West 441 507 32,000  Level Los Angeles Center
Sat 02:26:36 PM 34.4314 -117.1508 285° West 441 507 32,000  Level Los Angeles Center
Sat 02:27:38 PM 34.4633 -117.2969 285° West 445 512 32,000  Level Los Angeles Center
Sat 02:28:40 PM 34.4953 -117.4417 285° West 445 512 32,000  Level Los Angeles Center
Sat 02:29:42 PM 34.5264 -117.5875 285° West 445 512 32,000  Level Los Angeles Center
Sat 02:30:44 PM 34.5644 -117.7619 285° West 446 513 32,000  Level Los Angeles Center
Sat 02:31:46 PM 34.5961 -117.9047 285° West 441 507 32,000  Level Los Angeles Center
Sat 02:32:48 PM 34.6272 -118.0492 285° West 441 507 32,000  Level Los Angeles Center
Sat 02:33:51 PM 34.6606 -118.1908 286° West 438 504 32,000  Level Los Angeles Center
Sat 02:34:53 PM 34.6958 -118.3344 287° West 441 507 32,000  Level Los Angeles Center
Sat 02:35:55 PM 34.7322 -118.4883 286° West 443 510 32,000  Level Los Angeles Center
Sat 02:36:57 PM 34.7683 -118.6294 287° West 440 506 32,000  Level Los Angeles Center
Sat 02:37:59 PM 34.8161 -118.7664 293° West 441 507 32,000  Level Los Angeles Center
Sat 02:39:01 PM 34.8800 -118.9281 296° West 443 510 32,000  Level Los Angeles Center
Sat 02:40:03 PM 34.9286 -119.0586 294° West 443 510 32,000  Level Los Angeles Center
Sat 02:41:06 PM 34.9822 -119.1931 296° West 443 510 32,000  Level Los Angeles Center
Sat 02:42:08 PM 35.0336 -119.3258 295° West 437 503 32,000  Level Los Angeles Center
Sat 02:43:10 PM 35.0853 -119.4617 295° West 438 504 32,000  Level Los Angeles Center
Sat 02:44:12 PM 35.1469 -119.6253 295° West 439 505 32,000  Level Los Angeles Center
Sat 02:45:14 PM 35.1986 -119.7622 295° West 441 507 32,000  Level Los Angeles Center
Sat 02:46:16 PM 35.2500 -119.8978 295° West 441 507 32,000  Level Los Angeles Center
Sat 02:47:18 PM 35.3008 -120.0339 295° West 441 507 32,000  Level Los Angeles Center
Sat 02:48:20 PM 35.3522 -120.1742 294° West 441 507 32,000  Level Los Angeles Center
Sat 02:49:23 PM 35.4033 -120.3139 294° West 445 512 32,000  Level Los Angeles Center
Sat 02:50:25 PM 35.4647 -120.4850 294° West 456 525 32,000  Level Los Angeles Center
Sat 02:51:27 PM 35.5147 -120.6189 295° West 444 511 32,000  Level Los Angeles Center
Sat 02:52:29 PM 35.5650 -120.7556 294° West 442 509 32,000 -48 Level Los Angeles Center
Sat 02:53:31 PM 35.6064 -120.8975 290° West 444 511 31,900  Descending Los Angeles Center
Sat 02:54:33 PM 35.6344 -121.0583 282° West 441 507 32,000  Climbing Los Angeles Center
Sat 02:55:35 PM 35.6592 -121.2069 282° West 445 512 31,900 -48 Descending Los Angeles Center
Sat 02:56:38 PM 35.6836 -121.3536 282° West 442 509 31,900 48 Level Los Angeles Center
Sat 02:57:40 PM 35.7078 -121.5014 281° West 442 509 32,000  Climbing Los Angeles Center
Sat 02:58:42 PM 35.7367 -121.6761 282° West 440 506 31,900 280 Descending Los Angeles Center
Sat 03:08:24 PM 35.9481 -123.0411 281° West 414 476 35,000 289 Climbing Oakland Center
Sat 03:09:26 PM 35.9714 -123.1992 280° West 410 472 35,000  Level Oakland Center
Sat 03:10:27 PM 35.9919 -123.3383 280° West 411 473 35,000  Level Oakland Center
Sat 03:11:29 PM 36.0125 -123.4758 281° West 410 472 35,000  Level Oakland Center
Sat 03:12:31 PM 36.0319 -123.6136 280° West 409 471 35,000  Level Oakland Center
Sat 03:13:33 PM 36.0517 -123.7517 280° West 408 470 35,000 -49 Level Oakland Center
Sat 03:14:34 PM 36.0714 -123.8872 280° West 404 465 34,900  Descending Oakland Center
Sat 03:15:36 PM 36.0914 -124.0244 280° West 405 466 35,000 48 Climbing Oakland Center
Sat 03:16:38 PM 36.1139 -124.1881 280° West 404 465 35,000  Level Oakland Center
Sat 03:17:40 PM 36.1331 -124.3250 280° West 404 465 35,000  Level Oakland Center
Sat 03:18:42 PM 36.1519 -124.4614 280° West 403 464 35,000  Level Oakland Center
Sat 03:19:43 PM 36.1708 -124.5967 280° West 402 463 35,000  Level Oakland Center
Sat 03:20:45 PM 36.1881 -124.7325 279° West 401 461 35,000  Level Oakland Center
Sat 03:21:47 PM 36.2064 -124.8681 280° West 401 461 35,000  Level Oakland Center
Sat 03:22:49 PM 36.2247 -125.0025 280° West 400 460 35,000  Level Oakland Center
Sat 03:23:51 PM 36.2461 -125.1647 279° West 399 459 35,000  Level Oakland Center
Sat 03:24:52 PM 36.2625 -125.3000 279° West 398 458 35,000  Level Oakland Center
Sat 03:25:54 PM 36.2797 -125.4347 279° West 398 458 35,000 -48 Level Oakland Center
Sat 03:26:56 PM 36.2989 -125.5700 280° West 398 458 34,900  Descending Oakland Center
Sat 03:27:58 PM 36.3175 -125.7039 280° West 398 458 35,000 49 Climbing Oakland Center
Sat 03:28:59 PM 36.3344 -125.8375 279° West 398 458 35,000  Level Oakland Center
Sat 03:30:01 PM 36.3511 -125.9717 279° West 398 458 35,000  Level Oakland Center
Sat 03:31:03 PM 36.3708 -126.1303 279° West 395 455 35,000  Level Oakland Center
Sat 03:32:04 PM 36.3861 -126.2625 278° West 394 453 35,000  Level Oakland Center
Sat 03:33:06 PM 36.4028 -126.3961 279° West 394 453 35,000  Level Oakland Center
Sat 03:34:08 PM 36.4192 -126.5286 279° West 393 452 35,000  Level Oakland Center
Sat 03:35:09 PM 36.4328 -126.6611 277° West 393 452 35,000  Level Oakland Center
Sat 03:39:54 PM 36.4667 -126.9333 250° West 412 474 35,000  Level Oakland Oceanic (ODAPS)
Sat 04:37:15 PM 34.0167 -134.3500 246° West 397 457 35,000  Level Oakland Oceanic (ODAPS)
Sat 05:36:07 PM 31.1833 -141.2833 242° Southwest 421 484 35,000 -17 Level Oakland Oceanic (ODAPS)
Sat 06:32:31 PM 27.9000 -147.9667 239° Southwest 422 486 33,000 -19 Descending Oakland Oceanic (ODAPS)
Sat 07:24:02 PM 24.3500 -154.1833 236° Southwest 460 529 33,000  Level Honolulu Center
Sat 07:25:00 PM 24.3654 -154.1430 236° Southwest 422 486 33,000  Level FlightAware Transoceanic
Sat 07:25:02 PM 24.2833 -154.3000 238° Southwest 440 506 33,000  Level Honolulu Center
Sat 07:26:00 PM 24.3000 -154.2500 236° Southwest 422 486 33,000  Level FlightAware Transoceanic
Sat 07:26:02 PM 24.2167 -154.3833 229° Southwest 430 495 33,000  Level Honolulu Center
Sat 07:27:00 PM 24.2307 -154.3627 236° Southwest 422 486 33,000  Level FlightAware Transoceanic
Sat 07:27:37 PM 24.1000 -154.6000 239° Southwest 470 541 33,000  Level Honolulu Center
Sat 07:28:00 PM 24.1613 -154.4753 236° Southwest 422 486 33,000  Level FlightAware Transoceanic
Sat 07:28:37 PM 24.0167 -154.7000 228° Southwest 460 529 33,000  Level Honolulu Center
Sat 07:29:00 PM 24.0919 -154.5878 236° Southwest 422 486 33,000  Level FlightAware Transoceanic
Sat 07:29:37 PM 23.9500 -154.8167 238° Southwest 450 518 33,000  Level Honolulu Center
Sat 07:30:37 PM 23.8667 -154.9167 228° Southwest 470 541 33,000  Level Honolulu Center
Sat 07:31:38 PM 23.7500 -154.9500 195° South 450 518 33,000  Level Honolulu Center
Sat 07:32:38 PM 23.6167 -155.0000 199° South 460 529 33,000  Level Honolulu Center
Sat 07:33:38 PM 23.5000 -155.0333 195° South 450 518 33,000  Level Honolulu Center
Sat 07:34:38 PM 23.3833 -155.0833 201° Southwest 450 518 33,000  Level Honolulu Center
Sat 07:35:38 PM 23.2667 -155.1167 195° South 450 518 33,000  Level Honolulu Center
Sat 07:36:38 PM 23.1333 -155.1667 199° South 440 506 33,000  Level Honolulu Center
Sat 07:37:38 PM 23.0167 -155.2167 202° Southwest 450 518 33,000  Level Honolulu Center
Sat 07:38:38 PM 22.9000 -155.2500 195° South 470 541 33,000  Level Honolulu Center
Sat 07:39:38 PM 22.7833 -155.3000 202° Southwest 460 529 33,000  Level Honolulu Center
Sat 07:40:44 PM 22.6500 -155.3333 193° South 430 495 33,000  Level Honolulu Center
Sat 07:41:44 PM 22.5333 -155.3833 202° Southwest 460 529 33,000  Level Honolulu Center
Sat 07:42:44 PM 22.4167 -155.4333 202° Southwest 460 529 33,000  Level Honolulu Center
Sat 07:43:44 PM 22.2833 -155.4833 199° South 470 541 33,000  Level Honolulu Center
Sat 07:44:44 PM 22.1667 -155.5167 195° South 460 529 33,000  Level Honolulu Center
Sat 07:45:44 PM 22.0500 -155.5667 202° Southwest 470 541 33,000  Level Honolulu Center
Sat 07:46:45 PM 21.9167 -155.6167 199° South 460 529 33,000  Level Honolulu Center
Sat 07:47:45 PM 21.8000 -155.6667 202° Southwest 460 529 33,000  Level Honolulu Center
Sat 07:48:45 PM 21.6667 -155.7000 193° South 460 529 33,000  Level Honolulu Center
Sat 07:49:45 PM 21.5500 -155.7500 202° Southwest 470 541 33,000 -750 Level Honolulu Center
Sat 07:50:45 PM 21.4333 -155.8000 202° Southwest 470 541 31,500 -2,550 Descending Honolulu Center
Sat 07:51:45 PM 21.2833 -155.8500 197° South 480 552 27,900 -2,950 Descending Honolulu Center
Sat 07:52:45 PM 21.1667 -155.8833 195° South 460 529 25,600 -2,350 Descending Honolulu Center
Sat 07:53:45 PM 21.0500 -155.9333 202° Southwest 440 506 23,200 -2,450 Descending Honolulu Center
Sat 07:54:45 PM 20.9333 -155.9667 195° South 430 495 20,700 -2,479 Descending Honolulu Center
Sat 07:55:46 PM 20.8167 -156.0000 195° South 410 472 18,200 -2,380 Descending Honolulu Center
Sat 07:56:46 PM 20.7167 -156.0000 180° South 400 460 15,900 -2,300 Descending Honolulu Center
Sat 07:57:46 PM 20.6167 -156.0167 189° South 400 460 13,600 -2,250 Descending Honolulu Center
Sat 07:58:46 PM 20.5000 -156.0167 180° South 380 437 11,400 -1,650 Descending Honolulu Center
Sat 07:59:46 PM 20.4000 -156.0167 180° South 360 414 10,300 -950 Descending Honolulu Center
Sat 08:00:46 PM 20.3167 -156.0167 180° South 320 368 9,500 -1,200 Descending Honolulu Center
Sat 08:01:46 PM 20.2333 -156.0167 180° South 280 322 7,900 -1,438 Descending Honolulu Center
Sat 08:02:47 PM 20.1667 -156.0167 180° South 260 299 6,600 -1,350 Descending Honolulu Center
Sat 08:03:46 PM 20.0833 -156.0333 191° South 270 311 5,200 -1,350 Descending Honolulu Center
Sat 08:04:47 PM 20.0167 -156.0167 167° South 250 288 3,900 -992 Descending Honolulu Center
Sat 08:05:47 PM 19.9500 -156.0167 180° South 240 276 3,200 -550 Descending Honolulu Center
Sat 08:06:47 PM 19.8833 -156.0333 193° South 210 242 2,800 -700 Descending Honolulu Center
Sat 08:07:47 PM 19.8333 -156.0333 180° South 180 207 1,800 -900 Descending Honolulu Center
Sat 08:08:47 PM 19.8000 -156.0333 180° South 140 161 1,000 -694 Descending Honolulu Center
Sat 08:09:48 PM 19.7667 -156.0333 180° South 130 150 400 -590 Descending Honolulu Center

Login

Don't have an account? Register now (free) for customized features, flight alerts, and more!